sensor_id;sensor_type;location;lat;lon;timestamp;pressure;altitude;pressure_sealevel;temperature;humidity
5298;BME280;14738;42.668;23.250;2022-07-23T00:02:25;48352.59;;;-141.90;45.08
5298;BME280;14738;42.668;23.250;2022-07-23T00:04:50;48332.72;;;-141.90;45.26
5298;BME280;14738;42.668;23.250;2022-07-23T00:07:16;48300.97;;;-141.90;44.89
5298;BME280;14738;42.668;23.250;2022-07-23T00:09:41;48344.63;;;-141.90;44.33
5298;BME280;14738;42.668;23.250;2022-07-23T00:12:07;48348.63;;;-141.90;44.91
5298;BME280;14738;42.668;23.250;2022-07-23T00:14:32;48310.91;;;-141.90;45.26
5298;BME280;14738;42.668;23.250;2022-07-23T00:16:58;48324.78;;;-141.90;45.82
5298;BME280;14738;42.668;23.250;2022-07-23T00:19:23;48320.81;;;-141.90;46.05
5298;BME280;14738;42.668;23.250;2022-07-23T00:21:49;48334.72;;;-141.90;46.81
5298;BME280;14738;42.668;23.250;2022-07-23T00:24:14;48300.97;;;-141.90;46.75
5298;BME280;14738;42.668;23.250;2022-07-23T00:26:39;48338.69;;;-141.90;46.46
5298;BME280;14738;42.668;23.250;2022-07-23T00:29:05;48324.78;;;-141.90;46.44
5298;BME280;14738;42.668;23.250;2022-07-23T00:31:30;48314.88;;;-141.90;45.80
5298;BME280;14738;42.668;23.250;2022-07-23T00:33:56;48334.72;;;-141.90;45.93
5298;BME280;14738;42.668;23.250;2022-07-23T00:36:23;48350.59;;;-141.90;45.26
5298;BME280;14738;42.668;23.250;2022-07-23T00:38:49;48332.72;;;-141.90;45.75
5298;BME280;14738;42.668;23.250;2022-07-23T00:41:15;48344.63;;;-141.90;45.10
5298;BME280;14738;42.668;23.250;2022-07-23T00:43:40;48318.84;;;-141.90;46.25
5298;BME280;14738;42.668;23.250;2022-07-23T00:46:05;48342.66;;;-141.90;46.47
5298;BME280;14738;42.668;23.250;2022-07-23T00:48:31;48322.81;;;-141.90;47.17
5298;BME280;14738;42.668;23.250;2022-07-23T00:50:56;48320.81;;;-141.90;47.43
5298;BME280;14738;42.668;23.250;2022-07-23T00:53:22;48330.75;;;-141.90;48.29
5298;BME280;14738;42.668;23.250;2022-07-23T00:55:48;48336.69;;;-141.90;47.99
5298;BME280;14738;42.668;23.250;2022-07-23T00:58:15;48334.72;;;-141.90;47.45
5298;BME280;14738;42.668;23.250;2022-07-23T01:00:41;48324.78;;;-141.90;47.86
5298;BME280;14738;42.668;23.250;2022-07-23T01:03:07;48316.84;;;-141.90;47.51
5298;BME280;14738;42.668;23.250;2022-07-23T01:05:33;48342.66;;;-141.90;46.97
5298;BME280;14738;42.668;23.250;2022-07-23T01:07:59;48326.78;;;-141.90;46.24
5298;BME280;14738;42.668;23.250;2022-07-23T01:10:25;48326.78;;;-141.90;47.51
5298;BME280;14738;42.668;23.250;2022-07-23T01:12:58;48289.06;;;-141.90;47.46
5298;BME280;14738;42.668;23.250;2022-07-23T01:15:24;48330.75;;;-141.90;48.45
5298;BME280;14738;42.668;23.250;2022-07-23T01:17:50;48334.72;;;-141.90;49.48
5298;BME280;14738;42.668;23.250;2022-07-23T01:20:16;48314.88;;;-141.90;50.08
5298;BME280;14738;42.668;23.250;2022-07-23T01:22:42;48295.00;;;-141.90;49.29
5298;BME280;14738;42.668;23.250;2022-07-23T01:25:07;48322.81;;;-141.90;49.75
5298;BME280;14738;42.668;23.250;2022-07-23T01:27:33;48310.91;;;-141.90;49.95
5298;BME280;14738;42.668;23.250;2022-07-23T01:30:00;48320.81;;;-141.90;49.65
5298;BME280;14738;42.668;23.250;2022-07-23T01:32:26;48318.84;;;-141.90;49.58
5298;BME280;14738;42.668;23.250;2022-07-23T01:34:52;48330.75;;;-141.90;50.09
5298;BME280;14738;42.668;23.250;2022-07-23T01:37:17;48336.69;;;-141.90;49.85
5298;BME280;14738;42.668;23.250;2022-07-23T01:39:43;48308.91;;;-141.90;49.67
5298;BME280;14738;42.668;23.250;2022-07-23T01:42:08;48322.81;;;-141.90;49.50
5298;BME280;14738;42.668;23.250;2022-07-23T01:44:33;48342.66;;;-141.90;49.85
5298;BME280;14738;42.668;23.250;2022-07-23T01:46:59;48342.66;;;-141.90;50.20
5298;BME280;14738;42.668;23.250;2022-07-23T01:49:24;48297.00;;;-141.90;50.16
5298;BME280;14738;42.668;23.250;2022-07-23T01:51:50;48322.81;;;-141.90;50.30
5298;BME280;14738;42.668;23.250;2022-07-23T01:54:29;48302.94;;;-141.90;50.74
5298;BME280;14738;42.668;23.250;2022-07-23T01:56:55;48338.69;;;-141.90;50.52
5298;BME280;14738;42.668;23.250;2022-07-23T01:59:22;48362.50;;;-141.90;50.50
5298;BME280;14738;42.668;23.250;2022-07-23T02:01:48;48370.44;;;-141.90;50.69
5298;BME280;14738;42.668;23.250;2022-07-23T02:04:16;48316.84;;;-141.90;50.59
5298;BME280;14738;42.668;23.250;2022-07-23T02:06:42;48338.69;;;-141.90;51.04
5298;BME280;14738;42.668;23.250;2022-07-23T02:09:07;48304.94;;;-141.90;50.69
5298;BME280;14738;42.668;23.250;2022-07-23T02:11:33;48320.81;;;-141.90;50.22
5298;BME280;14738;42.668;23.250;2022-07-23T02:13:58;48308.91;;;-141.90;49.75
5298;BME280;14738;42.668;23.250;2022-07-23T02:16:23;48354.56;;;-141.90;49.48
5298;BME280;14738;42.668;23.250;2022-07-23T02:18:49;48344.63;;;-141.90;49.31
5298;BME280;14738;42.668;23.250;2022-07-23T02:21:14;48310.91;;;-141.90;48.77
5298;BME280;14738;42.668;23.250;2022-07-23T02:23:40;48318.84;;;-141.90;49.27
5298;BME280;14738;42.668;23.250;2022-07-23T02:26:05;48320.81;;;-141.90;50.01
5298;BME280;14738;42.668;23.250;2022-07-23T02:28:31;48318.84;;;-141.90;50.36
5298;BME280;14738;42.668;23.250;2022-07-23T02:30:56;48322.81;;;-141.90;50.05
5298;BME280;14738;42.668;23.250;2022-07-23T02:33:21;48295.00;;;-141.90;50.62
5298;BME280;14738;42.668;23.250;2022-07-23T02:35:47;48338.69;;;-141.90;50.76
5298;BME280;14738;42.668;23.250;2022-07-23T02:38:12;48324.78;;;-141.90;49.53
5298;BME280;14738;42.668;23.250;2022-07-23T02:40:38;48312.88;;;-141.90;50.41
5298;BME280;14738;42.668;23.250;2022-07-23T02:43:03;48318.84;;;-141.90;50.47
5298;BME280;14738;42.668;23.250;2022-07-23T02:45:29;48318.84;;;-141.90;50.25
5298;BME280;14738;42.668;23.250;2022-07-23T02:47:55;48302.94;;;-141.90;50.52
5298;BME280;14738;42.668;23.250;2022-07-23T02:50:20;48334.72;;;-141.90;50.94
5298;BME280;14738;42.668;23.250;2022-07-23T02:52:46;48298.97;;;-141.90;51.35
5298;BME280;14738;42.668;23.250;2022-07-23T02:55:11;48332.72;;;-141.90;51.35
5298;BME280;14738;42.668;23.250;2022-07-23T02:57:37;48320.81;;;-141.90;51.36
5298;BME280;14738;42.668;23.250;2022-07-23T03:00:04;48314.88;;;-141.90;51.18
5298;BME280;14738;42.668;23.250;2022-07-23T03:02:30;48346.63;;;-141.90;50.35
5298;BME280;14738;42.668;23.250;2022-07-23T03:04:55;48322.81;;;-141.90;49.85
5298;BME280;14738;42.668;23.250;2022-07-23T03:07:21;48310.91;;;-141.90;49.09
5298;BME280;14738;42.668;23.250;2022-07-23T03:09:46;48322.81;;;-141.90;49.48
5298;BME280;14738;42.668;23.250;2022-07-23T03:12:12;48342.66;;;-141.90;49.37
5298;BME280;14738;42.668;23.250;2022-07-23T03:14:37;48308.91;;;-141.90;49.02
5298;BME280;14738;42.668;23.250;2022-07-23T03:17:03;48340.66;;;-141.90;49.26
5298;BME280;14738;42.668;23.250;2022-07-23T03:19:28;48336.69;;;-141.90;48.73
5298;BME280;14738;42.668;23.250;2022-07-23T03:21:54;48314.88;;;-141.90;48.09
5298;BME280;14738;42.668;23.250;2022-07-23T03:24:19;48330.75;;;-141.90;48.56
5298;BME280;14738;42.668;23.250;2022-07-23T03:26:44;48326.78;;;-141.90;49.43
5298;BME280;14738;42.668;23.250;2022-07-23T03:29:10;48344.63;;;-141.90;49.26
5298;BME280;14738;42.668;23.250;2022-07-23T03:31:36;48328.75;;;-141.90;49.27
5298;BME280;14738;42.668;23.250;2022-07-23T03:34:01;48334.72;;;-141.90;49.27
5298;BME280;14738;42.668;23.250;2022-07-23T03:36:27;48330.75;;;-141.90;49.45
5298;BME280;14738;42.668;23.250;2022-07-23T03:38:53;48350.59;;;-141.90;48.96
5298;BME280;14738;42.668;23.250;2022-07-23T03:41:19;48312.88;;;-141.90;49.00
5298;BME280;14738;42.668;23.250;2022-07-23T03:43:45;48338.69;;;-141.90;48.19
5298;BME280;14738;42.668;23.250;2022-07-23T03:46:11;48338.69;;;-141.90;48.26
5298;BME280;14738;42.668;23.250;2022-07-23T03:48:37;48358.53;;;-141.90;48.42
5298;BME280;14738;42.668;23.250;2022-07-23T03:51:03;48330.75;;;-141.90;48.33
5298;BME280;14738;42.668;23.250;2022-07-23T03:53:28;48346.63;;;-141.90;47.58
5298;BME280;14738;42.668;23.250;2022-07-23T03:55:54;48334.72;;;-141.90;48.12
5298;BME280;14738;42.668;23.250;2022-07-23T03:58:19;48354.56;;;-141.90;47.38
5298;BME280;14738;42.668;23.250;2022-07-23T04:00:44;48362.50;;;-141.90;46.64
5298;BME280;14738;42.668;23.250;2022-07-23T04:03:10;48348.63;;;-141.90;46.72
5298;BME280;14738;42.668;23.250;2022-07-23T04:05:35;48378.38;;;-141.90;46.26
5298;BME280;14738;42.668;23.250;2022-07-23T04:08:01;48350.59;;;-141.90;46.51
5298;BME280;14738;42.668;23.250;2022-07-23T04:10:26;48350.59;;;-141.90;46.12
5298;BME280;14738;42.668;23.250;2022-07-23T04:12:52;48350.59;;;-141.90;46.84
5298;BME280;14738;42.668;23.250;2022-07-23T04:15:17;48384.34;;;-141.90;46.75
5298;BME280;14738;42.668;23.250;2022-07-23T04:17:42;48352.59;;;-141.90;46.83
5298;BME280;14738;42.668;23.250;2022-07-23T04:20:10;48358.53;;;-141.90;46.14
5298;BME280;14738;42.668;23.250;2022-07-23T04:22:35;48368.47;;;-141.90;44.76
5298;BME280;14738;42.668;23.250;2022-07-23T04:25:02;48410.16;;;-141.90;44.51
5298;BME280;14738;42.668;23.250;2022-07-23T04:27:28;48372.44;;;-141.90;44.69
5298;BME280;14738;42.668;23.250;2022-07-23T04:29:53;48390.31;;;-141.90;44.83
5298;BME280;14738;42.668;23.250;2022-07-23T04:32:19;48366.47;;;-141.90;44.16
5298;BME280;14738;42.668;23.250;2022-07-23T04:34:44;48422.06;;;-141.90;43.69
5298;BME280;14738;42.668;23.250;2022-07-23T04:37:09;48410.16;;;-141.90;43.13
5298;BME280;14738;42.668;23.250;2022-07-23T04:39:35;48410.16;;;-141.90;42.88
5298;BME280;14738;42.668;23.250;2022-07-23T04:42:00;48422.06;;;-141.90;41.83
5298;BME280;14738;42.668;23.250;2022-07-23T04:44:26;48435.97;;;-141.90;41.60
5298;BME280;14738;42.668;23.250;2022-07-23T04:46:51;48410.16;;;-141.90;41.29
5298;BME280;14738;42.668;23.250;2022-07-23T04:49:16;48406.19;;;-141.90;39.78
5298;BME280;14738;42.668;23.250;2022-07-23T04:51:42;48433.97;;;-141.90;40.87
5298;BME280;14738;42.668;23.250;2022-07-23T04:54:07;48424.06;;;-141.90;39.00
5298;BME280;14738;42.668;23.250;2022-07-23T04:56:33;48430.00;;;-141.90;38.85
5298;BME280;14738;42.668;23.250;2022-07-23T04:58:58;48443.91;;;-141.90;38.75
5298;BME280;14738;42.668;23.250;2022-07-23T05:01:23;48437.94;;;-141.90;38.63
5298;BME280;14738;42.668;23.250;2022-07-23T05:03:49;48445.88;;;-141.90;37.71
5298;BME280;14738;42.668;23.250;2022-07-23T05:06:15;48451.84;;;-141.90;37.35
5298;BME280;14738;42.668;23.250;2022-07-23T05:08:40;48477.66;;;-141.90;36.52
5298;BME280;14738;42.668;23.250;2022-07-23T05:11:06;48465.75;;;-141.90;36.28
5298;BME280;14738;42.668;23.250;2022-07-23T05:13:31;48503.47;;;-141.90;36.07
5298;BME280;14738;42.668;23.250;2022-07-23T05:15:57;48487.56;;;-141.90;35.96
5298;BME280;14738;42.668;23.250;2022-07-23T05:18:22;48503.47;;;-141.90;35.63
5298;BME280;14738;42.668;23.250;2022-07-23T05:20:47;48509.41;;;-141.90;36.12
5298;BME280;14738;42.668;23.250;2022-07-23T05:23:13;48481.63;;;-141.90;35.74
5298;BME280;14738;42.668;23.250;2022-07-23T05:25:39;48515.38;;;-141.90;35.68
5298;BME280;14738;42.668;23.250;2022-07-23T05:28:05;48547.13;;;-141.90;34.12
5298;BME280;14738;42.668;23.250;2022-07-23T05:30:30;48517.34;;;-141.90;34.69
5298;BME280;14738;42.668;23.250;2022-07-23T05:32:55;48537.22;;;-141.90;34.21
5298;BME280;14738;42.668;23.250;2022-07-23T05:35:21;48535.22;;;-141.90;34.02
5298;BME280;14738;42.668;23.250;2022-07-23T05:37:46;48521.34;;;-141.90;34.31
5298;BME280;14738;42.668;23.250;2022-07-23T05:40:12;48521.34;;;-141.90;33.00
5298;BME280;14738;42.668;23.250;2022-07-23T05:42:39;48545.16;;;-141.90;32.83
5298;BME280;14738;42.668;23.250;2022-07-23T05:45:06;48529.28;;;-141.90;33.18
5298;BME280;14738;42.668;23.250;2022-07-23T05:47:48;48551.09;;;-141.90;33.50
5298;BME280;14738;42.668;23.250;2022-07-23T05:50:15;48582.88;;;-141.90;32.81
5298;BME280;14738;42.668;23.250;2022-07-23T05:52:41;48598.75;;;-141.90;31.72
5298;BME280;14738;42.668;23.250;2022-07-23T05:55:07;48594.78;;;-141.90;31.87
5298;BME280;14738;42.668;23.250;2022-07-23T05:57:34;48612.66;;;-141.90;30.82
5298;BME280;14738;42.668;23.250;2022-07-23T05:59:59;48684.13;;;-141.90;29.99
5298;BME280;14738;42.668;23.250;2022-07-23T06:02:25;48727.81;;;-141.90;28.86
5298;BME280;14738;42.668;23.250;2022-07-23T06:04:50;48668.25;;;-141.90;28.57
5298;BME280;14738;42.668;23.250;2022-07-23T06:07:16;48779.44;;;-141.90;27.68
5298;BME280;14738;42.668;23.250;2022-07-23T06:09:41;48787.38;;;-141.90;27.52
5298;BME280;14738;42.668;23.250;2022-07-23T06:12:07;48858.84;;;-141.90;26.15
5298;BME280;14738;42.668;23.250;2022-07-23T06:14:32;48981.94;;;-141.90;25.11
5298;BME280;14738;42.668;23.250;2022-07-23T06:16:58;49111.00;;;-141.90;23.15
5298;BME280;14738;42.668;23.250;2022-07-23T06:19:24;49107.03;;;-141.90;22.65
5298;BME280;14738;42.668;23.250;2022-07-23T06:21:50;49176.53;;;-141.90;21.32
5298;BME280;14738;42.668;23.250;2022-07-23T06:24:15;49192.41;;;-141.90;21.00
5298;BME280;14738;42.668;23.250;2022-07-23T06:26:41;49271.84;;;-141.90;20.89
5298;BME280;14738;42.668;23.250;2022-07-23T06:29:06;49301.63;;;-141.90;20.78
5298;BME280;14738;42.668;23.250;2022-07-23T06:31:32;49458.50;;;-141.90;19.29
5298;BME280;14738;42.668;23.250;2022-07-23T06:33:58;49359.22;;;-141.90;20.14
5298;BME280;14738;42.668;23.250;2022-07-23T06:36:24;49438.63;;;-141.90;19.16
5298;BME280;14738;42.668;23.250;2022-07-23T06:38:49;49349.28;;;-141.90;19.47
5298;BME280;14738;42.668;23.250;2022-07-23T06:41:15;49428.72;;;-141.90;19.45
5298;BME280;14738;42.668;23.250;2022-07-23T06:43:40;49394.94;;;-141.90;19.43
5298;BME280;14738;42.668;23.250;2022-07-23T06:46:06;49398.94;;;-141.90;19.49
5298;BME280;14738;42.668;23.250;2022-07-23T06:48:31;49430.69;;;-141.90;19.42
5298;BME280;14738;42.668;23.250;2022-07-23T06:50:57;49379.06;;;-141.90;19.06
5298;BME280;14738;42.668;23.250;2022-07-23T06:53:23;49390.97;;;-141.90;19.52
5298;BME280;14738;42.668;23.250;2022-07-23T06:55:48;49277.78;;;-141.90;19.66
5298;BME280;14738;42.668;23.250;2022-07-23T06:58:14;49269.84;;;-141.90;20.13
5298;BME280;14738;42.668;23.250;2022-07-23T07:00:40;49321.47;;;-141.90;19.13
5298;BME280;14738;42.668;23.250;2022-07-23T07:03:05;49353.25;;;-141.90;19.01
5298;BME280;14738;42.668;23.250;2022-07-23T07:05:31;49343.31;;;-141.90;18.80
5298;BME280;14738;42.668;23.250;2022-07-23T07:07:56;49255.94;;;-141.90;20.09
5298;BME280;14738;42.668;23.250;2022-07-23T07:10:22;49265.88;;;-141.90;19.53
5298;BME280;14738;42.668;23.250;2022-07-23T07:12:47;49319.50;;;-141.90;20.13
5298;BME280;14738;42.668;23.250;2022-07-23T07:15:13;49468.44;;;-141.90;18.03
5298;BME280;14738;42.668;23.250;2022-07-23T07:17:38;49518.06;;;-141.90;18.49
5298;BME280;14738;42.668;23.250;2022-07-23T07:20:05;49531.97;;;-141.90;17.39
5298;BME280;14738;42.668;23.250;2022-07-23T07:22:31;49434.66;;;-141.90;17.98
5298;BME280;14738;42.668;23.250;2022-07-23T07:24:56;49265.88;;;-141.90;19.59
5298;BME280;14738;42.668;23.250;2022-07-23T07:27:22;49244.03;;;-141.90;20.22
5298;BME280;14738;42.668;23.250;2022-07-23T07:29:47;49156.66;;;-141.90;20.58
5298;BME280;14738;42.668;23.250;2022-07-23T07:32:12;49156.66;;;-141.90;21.59
5298;BME280;14738;42.668;23.250;2022-07-23T07:34:38;49093.13;;;-141.90;21.78
5298;BME280;14738;42.668;23.250;2022-07-23T07:37:03;49069.31;;;-141.90;21.68
5298;BME280;14738;42.668;23.250;2022-07-23T07:39:29;49065.34;;;-141.90;21.84
5298;BME280;14738;42.668;23.250;2022-07-23T07:41:54;49140.78;;;-141.90;21.73
5298;BME280;14738;42.668;23.250;2022-07-23T07:44:20;49081.22;;;-141.90;22.24
5298;BME280;14738;42.668;23.250;2022-07-23T07:46:45;49005.78;;;-141.90;23.06
5298;BME280;14738;42.668;23.250;2022-07-23T07:49:11;49069.31;;;-141.90;22.01
5298;BME280;14738;42.668;23.250;2022-07-23T07:51:36;48985.91;;;-141.90;22.36
5298;BME280;14738;42.668;23.250;2022-07-23T07:54:04;48934.28;;;-141.90;22.71
5298;BME280;14738;42.668;23.250;2022-07-23T07:56:30;48993.84;;;-141.90;22.77
5298;BME280;14738;42.668;23.250;2022-07-23T07:58:55;49017.69;;;-141.90;22.62
5298;BME280;14738;42.668;23.250;2022-07-23T08:01:21;48991.88;;;-141.90;23.08
5298;BME280;14738;42.668;23.250;2022-07-23T08:03:46;49033.56;;;-141.90;22.35
5298;BME280;14738;42.668;23.250;2022-07-23T08:06:12;48958.13;;;-141.90;23.08
5298;BME280;14738;42.668;23.250;2022-07-23T08:08:37;49001.81;;;-141.90;22.94
5298;BME280;14738;42.668;23.250;2022-07-23T08:11:03;49073.28;;;-141.90;22.04
5298;BME280;14738;42.668;23.250;2022-07-23T08:13:28;49033.56;;;-141.90;22.24
5298;BME280;14738;42.668;23.250;2022-07-23T08:15:54;49057.41;;;-141.90;22.79
5298;BME280;14738;42.668;23.250;2022-07-23T08:18:20;49087.19;;;-141.90;22.05
5298;BME280;14738;42.668;23.250;2022-07-23T08:20:46;49057.41;;;-141.90;22.21
5298;BME280;14738;42.668;23.250;2022-07-23T08:23:11;49089.16;;;-141.90;21.67
5298;BME280;14738;42.668;23.250;2022-07-23T08:25:41;49101.06;;;-141.90;21.63
5298;BME280;14738;42.668;23.250;2022-07-23T08:28:09;49095.13;;;-141.90;21.61
5298;BME280;14738;42.668;23.250;2022-07-23T08:30:36;49093.13;;;-141.90;21.86
5298;BME280;14738;42.668;23.250;2022-07-23T08:33:05;49120.94;;;-141.90;22.01
5298;BME280;14738;42.668;23.250;2022-07-23T08:35:38;49116.97;;;-141.90;21.61
5298;BME280;14738;42.668;23.250;2022-07-23T08:38:06;49136.81;;;-141.90;21.29
5298;BME280;14738;42.668;23.250;2022-07-23T08:40:35;49105.03;;;-141.90;21.60
5298;BME280;14738;42.668;23.250;2022-07-23T08:43:05;49095.13;;;-141.90;21.57
5298;BME280;14738;42.668;23.250;2022-07-23T08:45:36;49053.41;;;-141.90;22.22
5298;BME280;14738;42.668;23.250;2022-07-23T08:48:02;49039.53;;;-141.90;22.61
5298;BME280;14738;42.668;23.250;2022-07-23T08:50:28;49069.31;;;-141.90;22.34
5298;BME280;14738;42.668;23.250;2022-07-23T08:52:54;49037.53;;;-141.90;21.71
5298;BME280;14738;42.668;23.250;2022-07-23T08:55:22;49077.25;;;-141.90;22.57
5298;BME280;14738;42.668;23.250;2022-07-23T08:57:49;49085.19;;;-141.90;23.48
5298;BME280;14738;42.668;23.250;2022-07-23T09:00:15;49017.69;;;-141.90;22.97
5298;BME280;14738;42.668;23.250;2022-07-23T09:02:42;49033.56;;;-141.90;21.81
5298;BME280;14738;42.668;23.250;2022-07-23T09:05:10;49069.31;;;-141.90;22.98
5298;BME280;14738;42.668;23.250;2022-07-23T09:08:18;49099.09;;;-141.90;22.35
5298;BME280;14738;42.668;23.250;2022-07-23T09:15:49;49158.66;;;-141.90;21.46
5298;BME280;14738;42.668;23.250;2022-07-23T09:18:16;49160.66;;;-141.90;21.70
5298;BME280;14738;42.668;23.250;2022-07-23T09:20:41;49142.78;;;-141.90;21.98
5298;BME280;14738;42.668;23.250;2022-07-23T09:23:08;49182.50;;;-141.90;20.86
5298;BME280;14738;42.668;23.250;2022-07-23T09:25:33;49154.69;;;-141.90;20.57
5298;BME280;14738;42.668;23.250;2022-07-23T09:28:00;49220.22;;;-141.90;20.54
5298;BME280;14738;42.668;23.250;2022-07-23T09:30:31;49206.31;;;-141.90;20.92
5298;BME280;14738;42.668;23.250;2022-07-23T09:33:12;49228.16;;;-141.90;20.13
5298;BME280;14738;42.668;23.250;2022-07-23T09:35:53;49212.28;;;-141.90;19.39
5298;BME280;14738;42.668;23.250;2022-07-23T09:38:21;49206.31;;;-141.90;19.99
5298;BME280;14738;42.668;23.250;2022-07-23T09:41:10;49140.78;;;-141.90;19.10
5298;BME280;14738;42.668;23.250;2022-07-23T09:43:37;49132.84;;;-141.90;19.36
5298;BME280;14738;42.668;23.250;2022-07-23T09:46:19;49140.78;;;-141.90;19.40
5298;BME280;14738;42.668;23.250;2022-07-23T09:48:46;49172.56;;;-141.90;19.18
5298;BME280;14738;42.668;23.250;2022-07-23T09:51:11;49236.09;;;-141.90;19.14
5298;BME280;14738;42.668;23.250;2022-07-23T09:53:38;49188.44;;;-141.90;17.78
5298;BME280;14738;42.668;23.250;2022-07-23T09:56:04;49156.66;;;-141.90;18.11
5298;BME280;14738;42.668;23.250;2022-07-23T09:58:30;49126.88;;;-141.90;19.63
5298;BME280;14738;42.668;23.250;2022-07-23T10:00:57;49124.91;;;-141.90;19.22
5298;BME280;14738;42.668;23.250;2022-07-23T10:03:23;49168.59;;;-141.90;18.17
5298;BME280;14738;42.668;23.250;2022-07-23T10:05:50;49168.59;;;-141.90;18.36
5298;BME280;14738;42.668;23.250;2022-07-23T10:08:18;49166.59;;;-141.90;18.71
5298;BME280;14738;42.668;23.250;2022-07-23T10:10:46;49228.16;;;-141.90;18.99
5298;BME280;14738;42.668;23.250;2022-07-23T10:13:14;49220.22;;;-141.90;18.63
5298;BME280;14738;42.668;23.250;2022-07-23T10:15:58;49228.16;;;-141.90;18.41
5298;BME280;14738;42.668;23.250;2022-07-23T10:18:24;49210.28;;;-141.90;17.83
5298;BME280;14738;42.668;23.250;2022-07-23T10:20:50;49236.09;;;-141.90;17.00
5298;BME280;14738;42.668;23.250;2022-07-23T10:26:09;49240.06;;;-141.90;17.00
5298;BME280;14738;42.668;23.250;2022-07-23T10:31:50;49250.00;;;-141.90;17.72
5298;BME280;14738;42.668;23.250;2022-07-23T10:34:41;49271.84;;;-141.90;16.85
5298;BME280;14738;42.668;23.250;2022-07-23T10:37:22;49220.22;;;-141.90;16.53
5298;BME280;14738;42.668;23.250;2022-07-23T10:40:08;49228.16;;;-141.90;17.84
5298;BME280;14738;42.668;23.250;2022-07-23T10:42:36;49244.03;;;-141.90;17.12
5298;BME280;14738;42.668;23.250;2022-07-23T10:45:25;49220.22;;;-141.90;15.45
5298;BME280;14738;42.668;23.250;2022-07-23T10:47:52;49214.25;;;-141.90;15.63
5298;BME280;14738;42.668;23.250;2022-07-23T10:50:29;49244.03;;;-141.90;15.49
5298;BME280;14738;42.668;23.250;2022-07-23T10:58:01;49232.13;;;-141.90;14.11
5298;BME280;14738;42.668;23.250;2022-07-23T11:00:30;49216.25;;;-141.90;14.54
5298;BME280;14738;42.668;23.250;2022-07-23T11:03:02;49188.44;;;-141.90;14.72
5298;BME280;14738;42.668;23.250;2022-07-23T11:05:45;49194.41;;;-141.90;15.02
5298;BME280;14738;42.668;23.250;2022-07-23T11:08:12;49146.75;;;-141.90;14.55
5298;BME280;14738;42.668;23.250;2022-07-23T11:13:44;49226.16;;;-141.90;14.96
5298;BME280;14738;42.668;23.250;2022-07-23T11:37:08;49244.03;;;-141.90;15.45
5298;BME280;14738;42.668;23.250;2022-07-23T11:39:34;49212.28;;;-141.90;14.89
5298;BME280;14738;42.668;23.250;2022-07-23T11:42:02;49216.25;;;-141.90;15.43
5298;BME280;14738;42.668;23.250;2022-07-23T11:44:32;49218.22;;;-141.90;13.81
5298;BME280;14738;42.668;23.250;2022-07-23T11:47:09;49236.09;;;-141.90;14.45
5298;BME280;14738;42.668;23.250;2022-07-23T11:49:35;49210.28;;;-141.90;13.07
5298;BME280;14738;42.668;23.250;2022-07-23T11:52:12;49194.41;;;-141.90;13.84
5298;BME280;14738;42.668;23.250;2022-07-23T11:57:15;49222.19;;;-141.90;13.37
5298;BME280;14738;42.668;23.250;2022-07-23T11:59:43;49148.72;;;-141.90;13.43
5298;BME280;14738;42.668;23.250;2022-07-23T12:02:10;49204.31;;;-141.90;14.23
5298;BME280;14738;42.668;23.250;2022-07-23T12:04:45;49208.31;;;-141.90;13.61
5298;BME280;14738;42.668;23.250;2022-07-23T12:07:33;49198.38;;;-141.90;13.18
5298;BME280;14738;42.668;23.250;2022-07-23T12:10:15;49206.31;;;-141.90;12.90
5298;BME280;14738;42.668;23.250;2022-07-23T12:12:47;49226.16;;;-141.90;12.80
5298;BME280;14738;42.668;23.250;2022-07-23T12:15:15;49180.50;;;-141.90;13.11
5298;BME280;14738;42.668;23.250;2022-07-23T12:17:44;49160.66;;;-141.90;13.28
5298;BME280;14738;42.668;23.250;2022-07-23T12:20:13;49236.09;;;-141.90;15.09
5298;BME280;14738;42.668;23.250;2022-07-23T12:22:45;49168.59;;;-141.90;13.56
5298;BME280;14738;42.668;23.250;2022-07-23T12:25:14;49202.34;;;-141.90;13.27
5298;BME280;14738;42.668;23.250;2022-07-23T12:27:41;49204.31;;;-141.90;13.68
5298;BME280;14738;42.668;23.250;2022-07-23T12:30:24;49192.41;;;-141.90;13.50
5298;BME280;14738;42.668;23.250;2022-07-23T12:32:52;49188.44;;;-141.90;14.25
5298;BME280;14738;42.668;23.250;2022-07-23T12:35:18;49196.38;;;-141.90;14.55
5298;BME280;14738;42.668;23.250;2022-07-23T12:37:45;49224.19;;;-141.90;14.50
5298;BME280;14738;42.668;23.250;2022-07-23T12:43:12;49180.50;;;-141.90;13.82
5298;BME280;14738;42.668;23.250;2022-07-23T12:45:44;49230.13;;;-141.90;13.61
5298;BME280;14738;42.668;23.250;2022-07-23T12:48:19;49180.50;;;-141.90;13.64
5298;BME280;14738;42.668;23.250;2022-07-23T12:50:57;49210.28;;;-141.90;14.60
5298;BME280;14738;42.668;23.250;2022-07-23T12:55:49;49196.38;;;-141.90;15.20
5298;BME280;14738;42.668;23.250;2022-07-23T12:58:20;49194.41;;;-141.90;13.61
5298;BME280;14738;42.668;23.250;2022-07-23T13:01:04;49156.66;;;-141.90;14.23
5298;BME280;14738;42.668;23.250;2022-07-23T13:03:41;49144.75;;;-141.90;14.12
5298;BME280;14738;42.668;23.250;2022-07-23T13:06:10;49180.50;;;-141.90;14.94
5298;BME280;14738;42.668;23.250;2022-07-23T13:08:38;49194.41;;;-141.90;15.17
5298;BME280;14738;42.668;23.250;2022-07-23T13:11:05;49202.34;;;-141.90;14.77
5298;BME280;14738;42.668;23.250;2022-07-23T13:13:33;49178.50;;;-141.90;14.63
5298;BME280;14738;42.668;23.250;2022-07-23T13:15:59;49176.53;;;-141.90;14.48
5298;BME280;14738;42.668;23.250;2022-07-23T13:18:26;49216.25;;;-141.90;14.74
5298;BME280;14738;42.668;23.250;2022-07-23T13:20:52;49188.44;;;-141.90;14.09
5298;BME280;14738;42.668;23.250;2022-07-23T13:23:18;49140.78;;;-141.90;13.62
5298;BME280;14738;42.668;23.250;2022-07-23T13:25:45;49120.94;;;-141.90;14.02
5298;BME280;14738;42.668;23.250;2022-07-23T13:28:11;49152.69;;;-141.90;13.77
5298;BME280;14738;42.668;23.250;2022-07-23T13:30:37;49150.72;;;-141.90;14.26